createdAt,value
2023-03-27T00:01:32.563Z,6.51
2023-03-27T00:04:22.169Z,6.54
2023-03-27T00:07:13.076Z,6.42
2023-03-27T00:10:02.253Z,6.42
2023-03-27T00:12:52.435Z,6.36
2023-03-27T00:15:41.742Z,6.43
2023-03-27T00:18:31.086Z,6.40
2023-03-27T00:21:20.940Z,6.37
2023-03-27T00:24:12.003Z,6.33
2023-03-27T00:27:01.729Z,6.32
2023-03-27T00:29:50.849Z,6.29
2023-03-27T00:32:40.144Z,5.91
2023-03-27T00:35:31.569Z,6.28
2023-03-27T00:38:21.158Z,6.30
2023-03-27T00:41:12.793Z,6.26
2023-03-27T00:44:04.243Z,6.23
2023-03-27T00:46:57.138Z,6.23
2023-03-27T00:49:46.486Z,6.23
2023-03-27T00:52:37.273Z,6.22
2023-03-27T00:55:30.860Z,6.19
2023-03-27T00:58:26.686Z,6.17
2023-03-27T01:01:18.557Z,6.03
2023-03-27T01:04:09.445Z,6.16
2023-03-27T01:07:00.995Z,6.09
2023-03-27T01:09:51.124Z,6.09
2023-03-27T01:12:51.373Z,6.03
2023-03-27T01:15:49.107Z,6.03
2023-03-27T01:18:54.654Z,6.07
2023-03-27T01:22:33.786Z,5.96
2023-03-27T01:26:35.685Z,6.02
2023-03-27T01:29:49.393Z,5.99
2023-03-27T01:33:08.632Z,5.95
2023-03-27T01:36:34.972Z,5.92
2023-03-27T01:39:37.242Z,5.90
2023-03-27T01:42:33.934Z,5.83
2023-03-27T01:45:31.868Z,5.76
2023-03-27T01:48:27.758Z,5.78
2023-03-27T01:51:22.132Z,5.73
2023-03-27T01:54:17.890Z,5.64
2023-03-27T01:57:17.867Z,5.61
2023-03-27T02:00:19.409Z,5.63
2023-03-27T02:03:15.568Z,5.56
2023-03-27T02:06:09.740Z,5.54
2023-03-27T02:09:05.159Z,5.50
2023-03-27T02:12:01.616Z,5.44
2023-03-27T02:14:57.654Z,5.45
2023-03-27T02:18:13.651Z,5.29
2023-03-27T02:21:03.535Z,5.29
2023-03-27T02:23:55.456Z,5.36
2023-03-27T02:26:45.753Z,5.38
2023-03-27T02:29:49.264Z,5.36
2023-03-27T02:32:50.277Z,5.32
2023-03-27T02:35:56.530Z,5.27
2023-03-27T02:38:52.781Z,5.28
2023-03-27T02:41:51.757Z,5.28
2023-03-27T02:45:10.296Z,5.20
2023-03-27T02:48:07.975Z,5.26
2023-03-27T02:51:03.027Z,5.20
2023-03-27T02:53:57.857Z,5.18
2023-03-27T02:56:54.443Z,5.19
2023-03-27T02:59:54.837Z,5.16
2023-03-27T03:02:45.956Z,5.12
2023-03-27T03:05:38.214Z,5.09
2023-03-27T03:08:30.537Z,5.09
2023-03-27T03:11:23.764Z,5.08
2023-03-27T03:14:13.269Z,5.02
2023-03-27T03:17:02.673Z,5.09
2023-03-27T03:19:51.927Z,5.07
2023-03-27T03:22:42.922Z,5.01
2023-03-27T03:25:32.350Z,4.99
2023-03-27T03:28:22.320Z,4.95
2023-03-27T03:31:11.940Z,4.92
2023-03-27T03:34:02.465Z,4.87
2023-03-27T03:36:55.259Z,4.87
2023-03-27T03:39:52.494Z,4.81
2023-03-27T03:42:46.749Z,4.81
2023-03-27T03:45:36.311Z,4.78
2023-03-27T03:48:26.202Z,4.76
2023-03-27T03:51:15.628Z,4.71
2023-03-27T03:54:06.832Z,4.67
2023-03-27T03:56:57.725Z,4.60
2023-03-27T03:59:48.218Z,4.57
2023-03-27T04:03:07.478Z,4.52
2023-03-27T04:05:57.563Z,4.51
2023-03-27T04:08:47.617Z,4.47
2023-03-27T04:12:00.321Z,4.42
2023-03-27T04:15:10.442Z,4.36
2023-03-27T04:18:19.860Z,4.34
2023-03-27T04:21:14.886Z,4.35
2023-03-27T04:24:04.973Z,4.33
2023-03-27T04:27:08.407Z,4.26
2023-03-27T04:30:04.992Z,4.22
2023-03-27T04:33:30.612Z,4.21
2023-03-27T04:36:39.714Z,4.25
2023-03-27T04:39:39.849Z,4.18
2023-03-27T04:42:32.289Z,4.19
2023-03-27T04:45:22.764Z,4.22
2023-03-27T04:48:13.509Z,4.26
2023-03-27T04:51:03.248Z,4.31
2023-03-27T04:53:57.355Z,4.24
2023-03-27T04:56:48.114Z,4.28
2023-03-27T04:59:40.515Z,4.25
2023-03-27T05:02:48.893Z,4.16
2023-03-27T05:05:55.226Z,4.21
2023-03-27T05:08:44.695Z,4.18
2023-03-27T05:11:49.731Z,4.17
2023-03-27T05:14:40.511Z,4.14
2023-03-27T05:17:40.997Z,4.14
2023-03-27T05:20:31.597Z,4.11
2023-03-27T05:23:29.325Z,3.99
2023-03-27T05:26:19.199Z,4.00
2023-03-27T05:29:12.869Z,3.93
2023-03-27T05:32:07.945Z,3.97
2023-03-27T05:35:07.949Z,4.02
2023-03-27T05:38:02.629Z,3.95
2023-03-27T05:40:56.778Z,3.96
2023-03-27T05:43:47.903Z,3.93
2023-03-27T05:46:39.844Z,3.88
2023-03-27T05:49:37.653Z,3.92
2023-03-27T05:52:35.111Z,3.89
2023-03-27T05:55:28.046Z,3.84
2023-03-27T05:58:18.537Z,3.89
2023-03-27T06:01:11.205Z,3.89
2023-03-27T06:04:01.118Z,3.82
2023-03-27T06:07:10.518Z,3.70
2023-03-27T06:10:00.472Z,3.82
2023-03-27T06:13:01.645Z,3.85
2023-03-27T06:16:08.583Z,3.84
2023-03-27T06:19:07.493Z,3.85
2023-03-27T06:22:09.191Z,3.87
2023-03-27T06:25:12.108Z,3.86
2023-03-27T06:28:08.244Z,3.88
2023-03-27T06:31:10.059Z,3.93
2023-03-27T06:34:02.848Z,3.96
2023-03-27T06:37:10.560Z,3.91
2023-03-27T06:40:09.905Z,3.72
2023-03-27T06:43:02.744Z,3.89
2023-03-27T06:46:08.876Z,3.83
2023-03-27T06:49:26.782Z,3.99
2023-03-27T06:52:16.494Z,4.02
2023-03-27T06:55:14.925Z,4.00
2023-03-27T06:58:14.304Z,4.14
2023-03-27T07:01:07.161Z,4.27
2023-03-27T07:04:13.775Z,4.64
2023-03-27T07:07:31.721Z,5.12
2023-03-27T07:10:23.300Z,5.49
2023-03-27T07:13:16.685Z,5.97
2023-03-27T07:16:16.992Z,6.44
2023-03-27T07:19:10.012Z,6.89
2023-03-27T07:22:03.953Z,7.37
2023-03-27T07:24:55.878Z,7.76
2023-03-27T07:27:48.147Z,8.10
2023-03-27T07:30:39.330Z,8.44
2023-03-27T07:33:28.749Z,8.86
2023-03-27T07:36:19.488Z,9.19
2023-03-27T07:39:15.241Z,9.56
2023-03-27T07:42:04.885Z,9.81
2023-03-27T07:45:11.276Z,10.06
2023-03-27T07:48:07.145Z,10.27
2023-03-27T07:51:10.883Z,10.77
2023-03-27T07:54:04.548Z,11.11
2023-03-27T07:56:58.511Z,11.44
2023-03-27T07:59:54.647Z,11.73
2023-03-27T08:02:54.822Z,12.04
2023-03-27T08:05:44.651Z,12.35
2023-03-27T08:08:36.919Z,12.70
2023-03-27T08:11:31.077Z,12.92
2023-03-27T08:14:21.072Z,13.18
2023-03-27T08:17:16.267Z,13.38
2023-03-27T08:20:10.354Z,13.54
2023-03-27T08:23:07.689Z,13.81
2023-03-27T08:26:23.179Z,14.03
2023-03-27T08:29:17.587Z,14.30
2023-03-27T08:32:10.860Z,14.53
2023-03-27T08:35:03.826Z,14.85
2023-03-27T08:37:54.565Z,15.22
2023-03-27T08:40:50.264Z,15.36
2023-03-27T08:43:50.241Z,15.39
2023-03-27T08:46:46.920Z,15.25
2023-03-27T08:49:42.654Z,15.02
2023-03-27T08:53:18.713Z,14.67
2023-03-27T08:56:11.720Z,14.30
2023-03-27T08:59:03.559Z,14.00
2023-03-27T09:02:14.434Z,13.84
2023-03-27T09:05:11.387Z,13.88
2023-03-27T09:08:15.259Z,13.88
2023-03-27T09:11:15.320Z,13.90
2023-03-27T09:14:27.259Z,13.87
2023-03-27T09:17:22.289Z,14.18
2023-03-27T09:20:20.561Z,14.23
2023-03-27T09:23:21.998Z,14.40
2023-03-27T09:26:36.142Z,14.43
2023-03-27T09:29:45.424Z,14.38
2023-03-27T09:33:05.907Z,14.28
2023-03-27T09:35:57.807Z,13.97
2023-03-27T09:38:53.025Z,13.80
2023-03-27T09:41:50.190Z,13.81
2023-03-27T09:44:42.854Z,13.85
2023-03-27T09:47:38.392Z,14.00
2023-03-27T09:50:37.044Z,14.31
2023-03-27T09:53:40.884Z,14.65
2023-03-27T09:56:41.705Z,14.89
2023-03-27T09:59:34.926Z,14.99
2023-03-27T10:02:32.229Z,15.08
2023-03-27T10:05:25.271Z,15.39
2023-03-27T10:08:42.070Z,15.88
2023-03-27T10:11:40.263Z,16.37
2023-03-27T10:14:37.529Z,16.66
2023-03-27T10:17:30.652Z,17.08
2023-03-27T10:20:30.342Z,17.31
2023-03-27T10:23:27.723Z,17.15
2023-03-27T10:26:22.340Z,16.83
2023-03-27T10:29:25.832Z,17.02
2023-03-27T10:32:15.485Z,17.18
2023-03-27T10:35:05.557Z,17.53
2023-03-27T10:38:15.956Z,17.89
2023-03-27T10:41:29.193Z,18.10
2023-03-27T10:44:26.337Z,18.22
2023-03-27T10:47:23.686Z,18.28
2023-03-27T10:50:21.069Z,18.23
2023-03-27T10:53:22.039Z,18.13
2023-03-27T10:56:32.890Z,17.92
2023-03-27T10:59:41.046Z,17.91
2023-03-27T11:02:47.855Z,17.61
2023-03-27T11:05:42.809Z,17.37
2023-03-27T11:08:54.613Z,17.31
2023-03-27T11:11:53.271Z,17.17
2023-03-27T11:14:52.182Z,17.39
2023-03-27T11:17:54.149Z,17.58
2023-03-27T11:21:08.766Z,17.70
2023-03-27T11:24:24.718Z,17.68
2023-03-27T11:27:28.200Z,17.53
2023-03-27T11:30:38.027Z,17.42
2023-03-27T11:33:40.274Z,16.81
2023-03-27T11:36:43.601Z,16.13
2023-03-27T11:39:48.394Z,15.49
2023-03-27T11:42:44.864Z,15.04
2023-03-27T11:45:48.196Z,14.56
2023-03-27T11:49:01.006Z,14.42
2023-03-27T11:52:07.133Z,14.26
2023-03-27T11:55:17.612Z,13.96
2023-03-27T11:58:26.799Z,13.71
2023-03-27T12:01:27.145Z,13.53
2023-03-27T12:04:40.373Z,13.23
2023-03-27T12:08:07.013Z,13.19
2023-03-27T12:11:00.642Z,13.03
2023-03-27T12:14:40.503Z,13.15
2023-03-27T12:17:54.267Z,13.58
2023-03-27T12:20:58.837Z,13.79
2023-03-27T12:24:20.241Z,14.19
2023-03-27T12:27:48.237Z,14.60
2023-03-27T12:31:21.123Z,14.58
2023-03-27T12:34:27.963Z,15.03
2023-03-27T12:37:20.338Z,15.80
2023-03-27T12:40:30.509Z,15.87
2023-03-27T12:43:29.988Z,15.61
2023-03-27T12:46:39.490Z,15.32
2023-03-27T12:49:57.969Z,15.37
2023-03-27T12:52:56.855Z,15.28
2023-03-27T12:56:27.933Z,15.58
2023-03-27T12:59:24.683Z,16.08
2023-03-27T13:02:58.006Z,16.96
2023-03-27T13:06:23.536Z,17.46
2023-03-27T13:09:43.576Z,17.29
2023-03-27T13:12:55.287Z,16.76
2023-03-27T13:16:15.859Z,16.20
2023-03-27T13:19:32.885Z,16.03
2023-03-27T13:23:25.684Z,15.93
2023-03-27T13:26:34.508Z,15.78
2023-03-27T13:29:27.151Z,15.47
2023-03-27T13:32:35.707Z,15.33
2023-03-27T13:36:05.341Z,15.43
2023-03-27T13:39:22.239Z,15.53
2023-03-27T13:42:22.529Z,15.47
2023-03-27T13:45:21.444Z,15.71
2023-03-27T13:49:05.032Z,16.45
2023-03-27T13:52:51.848Z,17.46
2023-03-27T13:56:54.802Z,18.03
2023-03-27T14:00:59.788Z,17.92
2023-03-27T14:04:29.743Z,17.59
2023-03-27T14:08:06.024Z,17.26
2023-03-27T14:11:44.686Z,16.67
2023-03-27T14:15:03.822Z,16.20
2023-03-27T14:18:27.111Z,15.79
2023-03-27T14:21:31.459Z,15.45
2023-03-27T14:24:34.777Z,15.14
2023-03-27T14:27:37.523Z,14.88
2023-03-27T14:30:29.573Z,14.76
2023-03-27T14:33:51.370Z,14.58
2023-03-27T14:36:47.607Z,14.49
2023-03-27T14:39:55.654Z,14.43
2023-03-27T14:42:52.755Z,14.47
2023-03-27T14:45:43.443Z,14.54
2023-03-27T14:48:37.527Z,14.61
2023-03-27T14:51:37.397Z,14.64
2023-03-27T14:54:34.898Z,14.64
2023-03-27T14:57:29.788Z,14.75
2023-03-27T15:00:27.117Z,14.79
2023-03-27T15:03:20.134Z,15.07
2023-03-27T15:06:17.084Z,15.06
2023-03-27T15:09:16.529Z,15.22
2023-03-27T15:12:32.062Z,15.21
2023-03-27T15:15:34.649Z,15.23
2023-03-27T15:18:31.403Z,15.32
2023-03-27T15:21:34.838Z,15.43
2023-03-27T15:24:32.856Z,15.49
2023-03-27T15:27:28.401Z,15.62
2023-03-27T15:30:28.462Z,15.80
2023-03-27T15:33:22.950Z,15.90
2023-03-27T15:36:26.324Z,16.23
2023-03-27T15:39:21.850Z,16.39
2023-03-27T15:42:15.530Z,16.59
2023-03-27T15:45:05.853Z,16.78
2023-03-27T15:48:06.763Z,16.93
2023-03-27T15:50:58.336Z,17.02
2023-03-27T15:53:49.719Z,16.87
2023-03-27T15:56:43.103Z,16.51
2023-03-27T15:59:34.595Z,16.53
2023-03-27T16:02:26.552Z,16.37
2023-03-27T16:05:20.340Z,16.15
2023-03-27T16:08:10.842Z,15.94
2023-03-27T16:11:00.905Z,16.04
2023-03-27T16:13:56.889Z,16.08
2023-03-27T16:16:46.291Z,16.16
2023-03-27T16:19:44.157Z,16.20
2023-03-27T16:22:37.308Z,16.19
2023-03-27T16:25:26.510Z,16.27
2023-03-27T16:28:17.788Z,16.21
2023-03-27T16:31:16.639Z,16.27
2023-03-27T16:34:22.983Z,16.17
2023-03-27T16:37:13.435Z,16.09
2023-03-27T16:40:04.199Z,15.92
2023-03-27T16:42:56.277Z,15.67
2023-03-27T16:45:47.317Z,15.43
2023-03-27T16:48:36.538Z,15.07
2023-03-27T16:51:28.453Z,14.74
2023-03-27T16:54:17.618Z,14.57
2023-03-27T16:57:08.688Z,14.38
2023-03-27T16:59:58.516Z,14.18
2023-03-27T17:02:48.855Z,13.97
2023-03-27T17:05:38.071Z,13.83
2023-03-27T17:08:30.337Z,13.67
2023-03-27T17:11:19.496Z,13.60
2023-03-27T17:14:10.656Z,13.48
2023-03-27T17:16:59.938Z,13.42
2023-03-27T17:19:49.140Z,13.31
2023-03-27T17:22:38.448Z,13.15
2023-03-27T17:25:27.912Z,13.13
2023-03-27T17:28:17.294Z,12.98
2023-03-27T17:31:08.045Z,12.97
2023-03-27T17:33:57.354Z,12.89
2023-03-27T17:36:52.560Z,12.80
2023-03-27T17:39:43.906Z,12.78
2023-03-27T17:42:33.145Z,12.75
2023-03-27T17:45:23.927Z,12.67
2023-03-27T17:48:14.753Z,12.64
2023-03-27T17:51:09.377Z,12.61
2023-03-27T17:53:59.272Z,12.55
2023-03-27T17:56:48.632Z,12.56
2023-03-27T17:59:38.518Z,12.56
2023-03-27T18:02:27.846Z,12.55
2023-03-27T18:05:18.767Z,12.43
2023-03-27T18:08:09.969Z,12.45
2023-03-27T18:10:59.356Z,12.40
2023-03-27T18:13:52.669Z,12.40
2023-03-27T18:16:42.131Z,12.28
2023-03-27T18:19:31.389Z,12.08
2023-03-27T18:22:22.107Z,12.01
2023-03-27T18:25:12.385Z,11.93
2023-03-27T18:28:01.611Z,11.81
2023-03-27T18:31:02.080Z,11.64
2023-03-27T18:33:51.379Z,11.66
2023-03-27T18:36:40.631Z,11.52
2023-03-27T18:39:31.540Z,11.53
2023-03-27T18:42:20.936Z,11.37
2023-03-27T18:45:12.695Z,11.29
2023-03-27T18:48:02.264Z,11.19
2023-03-27T18:50:56.398Z,11.11
2023-03-27T18:53:45.766Z,11.10
2023-03-27T18:56:37.876Z,11.09
2023-03-27T18:59:27.333Z,11.10
2023-03-27T19:02:17.266Z,10.98
2023-03-27T19:05:08.610Z,10.93
2023-03-27T19:07:59.458Z,10.97
2023-03-27T19:10:48.707Z,10.97
2023-03-27T19:13:46.272Z,10.88
2023-03-27T19:16:58.667Z,10.84
2023-03-27T19:19:57.131Z,10.84
2023-03-27T19:23:11.582Z,10.77
2023-03-27T19:26:09.520Z,10.81
2023-03-27T19:29:04.497Z,10.84
2023-03-27T19:31:54.527Z,10.78
2023-03-27T19:34:44.074Z,10.83
2023-03-27T19:37:33.447Z,10.85
2023-03-27T19:40:22.917Z,10.82
2023-03-27T19:43:12.143Z,10.83
2023-03-27T19:46:14.999Z,10.80
2023-03-27T19:49:05.425Z,10.89
2023-03-27T19:52:20.908Z,10.75
2023-03-27T19:55:11.267Z,10.86
2023-03-27T19:58:00.479Z,10.81
2023-03-27T20:00:52.408Z,10.82
2023-03-27T20:03:43.573Z,10.82
2023-03-27T20:06:34.048Z,10.81
2023-03-27T20:09:23.295Z,10.81
2023-03-27T20:12:13.497Z,10.74
2023-03-27T20:15:11.655Z,10.77
2023-03-27T20:18:04.910Z,10.84
2023-03-27T20:20:56.297Z,10.80
2023-03-27T20:23:45.781Z,10.87
2023-03-27T20:26:48.289Z,10.75
2023-03-27T20:29:42.360Z,10.73
2023-03-27T20:32:32.226Z,10.77
2023-03-27T20:35:24.757Z,10.80
2023-03-27T20:38:16.079Z,10.78
2023-03-27T20:41:07.914Z,10.79
2023-03-27T20:43:58.849Z,10.83
2023-03-27T20:46:51.746Z,10.77
2023-03-27T20:49:43.573Z,10.79
2023-03-27T20:52:32.929Z,10.78
2023-03-27T20:55:33.721Z,10.78
2023-03-27T20:58:26.017Z,10.79
2023-03-27T21:01:19.492Z,10.80
2023-03-27T21:04:09.963Z,10.84
2023-03-27T21:07:00.227Z,10.81
2023-03-27T21:09:49.455Z,10.84
2023-03-27T21:12:40.891Z,10.85
2023-03-27T21:15:30.498Z,10.82
2023-03-27T21:18:20.065Z,10.88
2023-03-27T21:21:09.498Z,10.82
2023-03-27T21:24:01.265Z,10.93
2023-03-27T21:26:50.560Z,10.89
2023-03-27T21:29:41.768Z,10.94
2023-03-27T21:32:30.985Z,10.87
2023-03-27T21:35:20.295Z,10.91
2023-03-27T21:38:09.758Z,11.01
2023-03-27T21:40:59.036Z,11.00
2023-03-27T21:43:48.311Z,10.99
2023-03-27T21:46:38.980Z,11.01
2023-03-27T21:49:28.585Z,11.00
2023-03-27T21:52:17.769Z,11.01
2023-03-27T21:55:10.744Z,11.00
2023-03-27T21:57:59.927Z,11.03
2023-03-27T22:00:49.537Z,10.96
2023-03-27T22:03:40.141Z,11.03
2023-03-27T22:06:29.924Z,11.11
2023-03-27T22:09:19.235Z,11.00
2023-03-27T22:12:08.955Z,11.07
2023-03-27T22:14:58.243Z,11.13
2023-03-27T22:17:49.560Z,11.09
2023-03-27T22:20:41.025Z,11.10
2023-03-27T22:23:30.390Z,11.10
2023-03-27T22:26:20.625Z,11.09
2023-03-27T22:29:13.286Z,11.09
2023-03-27T22:32:02.561Z,11.12
2023-03-27T22:34:52.139Z,11.16
2023-03-27T22:37:42.898Z,11.11
2023-03-27T22:40:32.147Z,11.16
2023-03-27T22:43:22.919Z,11.16
2023-03-27T22:46:15.302Z,11.10
2023-03-27T22:49:04.802Z,11.03
2023-03-27T22:51:57.483Z,11.13
2023-03-27T22:54:50.327Z,11.11
2023-03-27T22:57:39.679Z,11.12
2023-03-27T23:00:28.962Z,11.10
2023-03-27T23:03:22.801Z,11.14
2023-03-27T23:06:19.156Z,11.14
2023-03-27T23:09:10.138Z,11.23
2023-03-27T23:12:03.936Z,11.19
2023-03-27T23:14:53.391Z,11.28
2023-03-27T23:17:42.850Z,11.23
2023-03-27T23:20:34.736Z,11.29
2023-03-27T23:23:26.875Z,11.29
2023-03-27T23:26:18.310Z,11.24
2023-03-27T23:29:11.816Z,11.17
2023-03-27T23:32:04.204Z,11.25
2023-03-27T23:34:53.429Z,11.25
2023-03-27T23:37:42.765Z,11.34
2023-03-27T23:40:34.771Z,11.37
2023-03-27T23:43:24.787Z,11.28
2023-03-27T23:46:15.704Z,11.23
2023-03-27T23:49:05.063Z,11.35
2023-03-27T23:51:54.607Z,11.42
2023-03-27T23:54:43.833Z,11.38
2023-03-27T23:57:33.071Z,11.38
